createdAt,value
2022-12-01T00:02:25.012Z,24.17
2022-12-01T00:04:52.209Z,23.90
2022-12-01T00:07:19.467Z,24.42
2022-12-01T00:10:05.543Z,23.75
2022-12-01T00:12:32.691Z,23.33
2022-12-01T00:15:01.150Z,23.88
2022-12-01T00:17:29.390Z,23.42
2022-12-01T00:19:56.798Z,24.15
2022-12-01T00:22:24.052Z,23.73
2022-12-01T00:24:51.220Z,24.58
2022-12-01T00:27:18.811Z,24.20
2022-12-01T00:29:47.107Z,23.98
2022-12-01T00:32:14.923Z,24.40
2022-12-01T00:34:42.086Z,24.00
2022-12-01T00:37:09.660Z,24.73
2022-12-01T00:39:36.828Z,22.38
2022-12-01T00:42:05.461Z,23.85
2022-12-01T00:44:34.569Z,21.95
2022-12-01T00:47:01.679Z,21.23
2022-12-01T00:49:28.921Z,22.38
2022-12-01T00:51:56.039Z,20.95
2022-12-01T00:54:23.208Z,21.05
2022-12-01T00:56:50.948Z,21.25
2022-12-01T00:59:18.063Z,20.55
2022-12-01T01:01:45.262Z,20.35
2022-12-01T01:04:12.444Z,19.92
2022-12-01T01:06:39.722Z,20.88
2022-12-01T01:09:06.845Z,20.33
2022-12-01T01:11:33.983Z,21.27
2022-12-01T01:14:01.202Z,21.02
2022-12-01T01:16:28.556Z,20.92
2022-12-01T01:18:55.932Z,22.20
2022-12-01T01:21:26.481Z,20.95
2022-12-01T01:23:54.207Z,20.98
2022-12-01T01:26:31.696Z,21.13
2022-12-01T01:28:59.544Z,19.88
2022-12-01T01:31:27.404Z,18.73
2022-12-01T01:33:55.635Z,20.75
2022-12-01T01:36:22.800Z,19.83
2022-12-01T01:38:53.381Z,20.23
2022-12-01T01:41:20.908Z,21.00
2022-12-01T01:43:49.444Z,18.90
2022-12-01T01:46:18.037Z,20.88
2022-12-01T01:48:49.956Z,20.52
2022-12-01T01:51:18.358Z,21.55
2022-12-01T01:53:46.214Z,21.38
2022-12-01T01:56:13.416Z,21.55
2022-12-01T01:58:40.906Z,20.70
2022-12-01T02:01:08.786Z,21.55
2022-12-01T02:03:37.880Z,21.00
2022-12-01T02:06:05.813Z,21.88
2022-12-01T02:08:35.189Z,21.00
2022-12-01T02:11:15.091Z,22.63
2022-12-01T02:14:01.186Z,23.58
2022-12-01T02:16:31.445Z,21.48
2022-12-01T02:19:17.273Z,21.42
2022-12-01T02:21:52.351Z,22.75
2022-12-01T02:24:33.299Z,22.15
2022-12-01T02:27:03.067Z,22.65
2022-12-01T02:29:30.156Z,23.20
2022-12-01T02:32:00.408Z,21.42
2022-12-01T02:34:33.316Z,21.95
2022-12-01T02:37:11.558Z,22.13
2022-12-01T02:39:55.358Z,24.50
2022-12-01T02:42:51.830Z,24.27
2022-12-01T02:45:29.708Z,24.75
2022-12-01T02:47:57.831Z,23.45
2022-12-01T02:50:26.194Z,26.15
2022-12-01T02:52:54.268Z,25.65
2022-12-01T02:55:21.553Z,26.15
2022-12-01T02:57:48.661Z,25.17
2022-12-01T03:00:16.326Z,24.55
2022-12-01T03:02:51.687Z,25.48
2022-12-01T03:05:21.760Z,25.38
2022-12-01T03:07:48.944Z,24.27
2022-12-01T03:10:30.228Z,26.08
2022-12-01T03:13:09.128Z,24.88
2022-12-01T03:15:51.036Z,25.38
2022-12-01T03:18:21.284Z,26.95
2022-12-01T03:20:57.403Z,25.98
2022-12-01T03:23:26.331Z,25.70
2022-12-01T03:25:55.495Z,24.58
2022-12-01T03:28:28.777Z,27.35
2022-12-01T03:30:58.650Z,24.65
2022-12-01T03:33:32.470Z,25.23
2022-12-01T03:36:05.758Z,25.20
2022-12-01T03:38:33.557Z,24.60
2022-12-01T03:41:02.844Z,25.45
2022-12-01T03:43:32.481Z,24.13
2022-12-01T03:46:07.691Z,24.95
2022-12-01T03:48:35.131Z,25.70
2022-12-01T03:51:14.600Z,25.60
2022-12-01T03:53:57.986Z,24.75
2022-12-01T03:56:27.243Z,23.42
2022-12-01T03:58:57.082Z,25.80
2022-12-01T04:01:26.457Z,25.95
2022-12-01T04:03:53.705Z,25.95
2022-12-01T04:06:20.804Z,25.27
2022-12-01T04:08:47.961Z,25.63
2022-12-01T04:11:33.783Z,24.42
2022-12-01T04:14:00.890Z,23.83
2022-12-01T04:16:28.110Z,26.60
2022-12-01T04:18:55.365Z,25.15
2022-12-01T04:21:22.483Z,24.90
2022-12-01T04:24:01.729Z,24.50
2022-12-01T04:26:29.597Z,26.08
2022-12-01T04:28:56.764Z,26.17
2022-12-01T04:31:24.012Z,26.55
2022-12-01T04:33:51.164Z,24.15
2022-12-01T04:36:18.395Z,26.10
2022-12-01T04:38:45.519Z,24.30
2022-12-01T04:41:13.330Z,23.40
2022-12-01T04:43:40.872Z,24.80
2022-12-01T04:46:08.478Z,24.40
2022-12-01T04:48:36.520Z,25.73
2022-12-01T04:51:04.575Z,25.80
2022-12-01T04:53:32.069Z,26.05
2022-12-01T04:56:02.591Z,23.63
2022-12-01T04:58:30.476Z,24.55
2022-12-01T05:01:09.398Z,26.02
2022-12-01T05:03:37.198Z,24.20
2022-12-01T05:06:15.155Z,23.98
2022-12-01T05:08:42.414Z,23.75
2022-12-01T05:11:11.854Z,22.08
2022-12-01T05:13:42.951Z,22.65
2022-12-01T05:16:11.508Z,20.33
2022-12-01T05:18:38.731Z,21.25
2022-12-01T05:21:06.721Z,22.85
2022-12-01T05:23:35.505Z,22.05
2022-12-01T05:26:03.018Z,20.35
2022-12-01T05:28:30.169Z,22.13
2022-12-01T05:30:57.386Z,22.13
2022-12-01T05:33:25.258Z,21.90
2022-12-01T05:35:52.787Z,21.73
2022-12-01T05:38:20.539Z,20.88
2022-12-01T05:40:51.574Z,21.60
2022-12-01T05:43:21.602Z,20.15
2022-12-01T05:45:51.162Z,20.25
2022-12-01T05:48:18.370Z,20.38
2022-12-01T05:50:45.762Z,19.08
2022-12-01T05:53:13.685Z,21.52
2022-12-01T05:55:41.606Z,20.40
2022-12-01T05:58:09.072Z,21.13
2022-12-01T06:00:40.897Z,21.27
2022-12-01T06:03:12.344Z,21.10
2022-12-01T06:05:39.468Z,21.23
2022-12-01T06:08:06.674Z,19.77
2022-12-01T06:10:33.852Z,20.27
2022-12-01T06:13:00.957Z,19.35
2022-12-01T06:15:28.164Z,20.00
2022-12-01T06:17:55.275Z,20.67
2022-12-01T06:20:23.411Z,21.10
2022-12-01T06:22:50.502Z,20.08
2022-12-01T06:25:17.767Z,20.50
2022-12-01T06:27:44.981Z,20.35
2022-12-01T06:30:12.242Z,20.25
2022-12-01T06:32:39.382Z,20.23
2022-12-01T06:35:06.748Z,20.80
2022-12-01T06:37:33.902Z,20.98
2022-12-01T06:40:01.059Z,21.70
2022-12-01T06:42:30.161Z,19.20
2022-12-01T06:44:57.309Z,20.52
2022-12-01T06:47:24.506Z,20.58
2022-12-01T06:49:52.043Z,19.42
2022-12-01T06:52:19.327Z,20.42
2022-12-01T06:54:46.424Z,19.42
2022-12-01T06:57:13.862Z,19.50
2022-12-01T06:59:41.201Z,18.55
2022-12-01T07:02:10.467Z,21.38
2022-12-01T07:04:37.737Z,19.95
2022-12-01T07:07:05.428Z,19.30
2022-12-01T07:09:32.567Z,18.63
2022-12-01T07:11:59.760Z,19.38
2022-12-01T07:14:27.317Z,21.05
2022-12-01T07:16:54.720Z,19.65
2022-12-01T07:19:22.199Z,19.60
2022-12-01T07:21:49.294Z,19.80
2022-12-01T07:24:16.487Z,19.90
2022-12-01T07:26:44.003Z,20.40
2022-12-01T07:29:11.290Z,19.58
2022-12-01T07:31:38.903Z,23.25
2022-12-01T07:34:06.228Z,20.55
2022-12-01T07:36:33.386Z,19.27
2022-12-01T07:39:00.964Z,21.08
2022-12-01T07:41:28.092Z,18.30
2022-12-01T07:43:55.722Z,18.92
2022-12-01T07:46:24.947Z,18.38
2022-12-01T07:48:52.660Z,18.27
2022-12-01T07:51:20.165Z,19.17
2022-12-01T07:53:49.137Z,18.45
2022-12-01T07:56:16.827Z,18.30
2022-12-01T07:58:44.055Z,18.23
2022-12-01T08:01:15.470Z,17.98
2022-12-01T08:03:43.056Z,17.92
2022-12-01T08:06:10.699Z,18.48
2022-12-01T08:08:38.775Z,17.33
2022-12-01T08:11:07.174Z,18.15
2022-12-01T08:13:34.513Z,18.35
2022-12-01T08:16:04.586Z,16.52
2022-12-01T08:18:31.738Z,17.92
2022-12-01T08:20:58.941Z,18.17
2022-12-01T08:23:26.116Z,18.23
2022-12-01T08:25:53.462Z,17.08
2022-12-01T08:28:20.771Z,18.42
2022-12-01T08:30:48.139Z,17.77
2022-12-01T08:33:15.348Z,18.33
2022-12-01T08:35:42.517Z,18.15
2022-12-01T08:38:09.919Z,18.13
2022-12-01T08:40:37.129Z,18.25
2022-12-01T08:43:05.052Z,18.60
2022-12-01T08:45:32.272Z,18.25
2022-12-01T08:47:59.909Z,16.88
2022-12-01T08:50:27.955Z,17.38
2022-12-01T08:52:55.285Z,17.63
2022-12-01T08:55:22.994Z,17.50
2022-12-01T08:57:50.103Z,18.30
2022-12-01T09:00:17.475Z,16.50
2022-12-01T09:02:44.633Z,16.92
2022-12-01T09:05:11.832Z,16.05
2022-12-01T09:07:39.096Z,16.98
2022-12-01T09:10:06.562Z,15.40
2022-12-01T09:12:33.689Z,16.90
2022-12-01T09:15:00.899Z,15.98
2022-12-01T09:17:29.125Z,16.23
2022-12-01T09:19:56.262Z,15.25
2022-12-01T09:22:23.416Z,15.48
2022-12-01T09:24:50.502Z,15.75
2022-12-01T09:27:17.637Z,16.13
2022-12-01T09:29:44.791Z,16.42
2022-12-01T09:32:11.955Z,14.80
2022-12-01T09:34:39.060Z,16.48
2022-12-01T09:37:06.913Z,16.00
2022-12-01T09:39:34.022Z,17.42
2022-12-01T09:42:09.337Z,16.38
2022-12-01T09:44:53.561Z,16.48
2022-12-01T09:47:35.289Z,16.00
2022-12-01T09:50:05.263Z,16.08
2022-12-01T09:52:40.635Z,16.30
2022-12-01T09:55:12.399Z,15.20
2022-12-01T09:57:40.428Z,15.95
2022-12-01T10:00:16.352Z,15.63
2022-12-01T10:02:47.769Z,16.30
2022-12-01T10:05:19.604Z,17.02
2022-12-01T10:08:07.093Z,16.05
2022-12-01T10:10:37.108Z,17.05
2022-12-01T10:13:09.767Z,15.70
2022-12-01T10:15:42.946Z,16.38
2022-12-01T10:18:18.977Z,16.20
2022-12-01T10:21:11.354Z,16.85
2022-12-01T10:23:44.320Z,16.50
2022-12-01T10:26:16.793Z,16.17
2022-12-01T10:29:05.598Z,15.15
2022-12-01T10:31:51.383Z,15.48
2022-12-01T10:34:22.124Z,16.23
2022-12-01T10:36:49.424Z,15.95
2022-12-01T10:39:37.599Z,15.80
2022-12-01T10:42:07.266Z,15.32
2022-12-01T10:44:35.757Z,15.55
2022-12-01T10:47:02.990Z,15.18
2022-12-01T10:49:38.035Z,16.23
2022-12-01T10:52:05.381Z,16.45
2022-12-01T10:54:34.338Z,16.08
2022-12-01T10:57:02.218Z,14.98
2022-12-01T10:59:29.340Z,15.32
2022-12-01T11:01:57.531Z,15.93
2022-12-01T11:04:32.092Z,15.25
2022-12-01T11:06:59.384Z,15.77
2022-12-01T11:09:28.157Z,17.20
2022-12-01T11:11:56.831Z,16.75
2022-12-01T11:14:27.782Z,15.82
2022-12-01T11:16:54.991Z,16.40
2022-12-01T11:19:32.885Z,15.48
2022-12-01T11:22:01.187Z,15.38
2022-12-01T11:24:31.422Z,15.18
2022-12-01T11:26:59.532Z,15.38
2022-12-01T11:29:26.610Z,15.98
2022-12-01T11:31:54.136Z,14.80
2022-12-01T11:34:22.565Z,14.80
2022-12-01T11:36:51.292Z,16.27
2022-12-01T11:39:31.768Z,16.55
2022-12-01T11:42:01.015Z,16.10
2022-12-01T11:44:50.326Z,16.52
2022-12-01T11:47:24.946Z,15.77
2022-12-01T11:49:57.520Z,16.70
2022-12-01T11:52:29.985Z,16.80
2022-12-01T11:55:12.254Z,15.68
2022-12-01T11:57:43.907Z,16.40
2022-12-01T12:00:18.465Z,16.40
2022-12-01T12:02:51.717Z,16.48
2022-12-01T12:05:37.817Z,15.18
2022-12-01T12:08:10.756Z,15.70
2022-12-01T12:10:45.636Z,16.45
2022-12-01T12:18:20.729Z,16.23
2022-12-01T12:20:54.050Z,15.35
2022-12-01T12:23:24.863Z,17.00
2022-12-01T12:26:02.898Z,16.35
2022-12-01T12:28:33.101Z,16.83
2022-12-01T12:31:12.263Z,16.73
2022-12-01T12:33:42.534Z,15.68
2022-12-01T12:36:09.638Z,16.73
2022-12-01T12:38:39.750Z,17.58
2022-12-01T12:41:29.781Z,16.77
2022-12-01T12:44:10.167Z,16.67
2022-12-01T12:46:43.374Z,16.05
2022-12-01T12:49:20.482Z,16.33
2022-12-01T12:51:48.114Z,17.65
2022-12-01T12:54:25.437Z,17.30
2022-12-01T12:56:56.064Z,16.23
2022-12-01T12:59:30.777Z,16.50
2022-12-01T13:02:24.086Z,16.27
2022-12-01T13:04:51.533Z,16.48
2022-12-01T13:07:35.028Z,17.55
2022-12-01T13:10:07.827Z,15.05
2022-12-01T13:12:41.240Z,18.02
2022-12-01T13:15:19.354Z,15.95
2022-12-01T13:17:50.355Z,15.32
2022-12-01T13:20:20.113Z,16.30
2022-12-01T13:22:48.282Z,16.98
2022-12-01T13:25:17.538Z,15.90
2022-12-01T13:27:45.515Z,16.75
2022-12-01T13:30:23.692Z,15.02
2022-12-01T13:32:58.535Z,17.67
2022-12-01T13:35:27.878Z,15.35
2022-12-01T13:37:56.429Z,16.70
2022-12-01T13:40:26.432Z,21.10
2022-12-01T13:43:10.533Z,15.98
2022-12-01T13:45:40.074Z,15.97
2022-12-01T13:48:08.121Z,16.08
2022-12-01T13:50:46.134Z,16.35
2022-12-01T13:53:15.279Z,16.27
2022-12-01T13:56:01.971Z,15.25
2022-12-01T13:58:35.179Z,16.13
2022-12-01T14:01:21.711Z,16.77
2022-12-01T14:03:56.875Z,15.68
2022-12-01T14:06:30.069Z,15.68
2022-12-01T14:09:20.625Z,16.42
2022-12-01T14:11:58.022Z,15.65
2022-12-01T14:14:26.545Z,15.93
2022-12-01T14:16:53.740Z,16.67
2022-12-01T14:19:28.097Z,16.15
2022-12-01T14:21:55.398Z,16.55
2022-12-01T14:24:42.726Z,16.55
2022-12-01T14:27:11.876Z,15.45
2022-12-01T14:29:40.041Z,16.30
2022-12-01T14:32:10.192Z,14.73
2022-12-01T14:34:38.185Z,14.73
2022-12-01T14:37:08.101Z,15.43
2022-12-01T14:39:42.410Z,16.20
2022-12-01T14:42:12.369Z,16.60
2022-12-01T14:44:48.184Z,15.52
2022-12-01T14:47:23.192Z,15.38
2022-12-01T14:49:57.326Z,15.60
2022-12-01T14:52:27.214Z,15.77
2022-12-01T14:54:59.729Z,15.07
2022-12-01T14:57:46.907Z,14.27
2022-12-01T15:00:17.287Z,15.40
2022-12-01T15:02:52.047Z,13.88
2022-12-01T15:05:23.927Z,15.18
2022-12-01T15:07:52.974Z,14.40
2022-12-01T15:10:35.085Z,15.90
2022-12-01T15:13:20.898Z,14.23
2022-12-01T15:15:56.908Z,14.23
2022-12-01T15:18:29.127Z,14.23
2022-12-01T15:20:58.701Z,14.85
2022-12-01T15:23:25.878Z,14.07
2022-12-01T15:25:53.131Z,14.57
2022-12-01T15:28:21.950Z,15.65
2022-12-01T15:30:51.757Z,14.85
2022-12-01T15:33:27.277Z,14.35
2022-12-01T15:35:55.770Z,14.02
2022-12-01T15:38:24.583Z,15.73
2022-12-01T15:41:21.294Z,14.18
2022-12-01T15:43:41.227Z,14.38
2022-12-01T15:46:13.549Z,14.25
2022-12-01T15:48:41.729Z,13.52
2022-12-01T15:51:11.598Z,14.75
2022-12-01T15:53:42.621Z,14.25
2022-12-01T15:56:10.737Z,13.95
2022-12-01T15:58:41.996Z,12.98
2022-12-01T16:01:13.636Z,13.23
2022-12-01T16:03:55.221Z,14.85
2022-12-01T16:06:24.219Z,14.98
2022-12-01T16:08:56.294Z,14.77
2022-12-01T16:11:23.734Z,14.00
2022-12-01T16:13:59.749Z,13.73
2022-12-01T16:16:45.890Z,15.02
2022-12-01T16:19:13.099Z,15.15
2022-12-01T16:21:49.142Z,14.63
2022-12-01T16:24:21.639Z,14.32
2022-12-01T16:26:56.831Z,14.40
2022-12-01T16:29:25.164Z,14.23
2022-12-01T16:32:18.599Z,14.73
2022-12-01T16:34:47.450Z,14.75
2022-12-01T16:37:15.423Z,14.15
2022-12-01T16:39:42.941Z,14.48
2022-12-01T16:42:17.265Z,16.27
2022-12-01T16:44:46.360Z,14.52
2022-12-01T16:47:15.387Z,14.15
2022-12-01T16:49:42.585Z,14.68
2022-12-01T16:52:36.558Z,14.60
2022-12-01T16:54:57.210Z,13.20
2022-12-01T16:57:24.344Z,14.15
2022-12-01T16:59:51.450Z,13.73
2022-12-01T17:02:18.614Z,14.73
2022-12-01T17:04:45.755Z,15.55
2022-12-01T17:07:12.922Z,14.10
2022-12-01T17:09:40.072Z,15.35
2022-12-01T17:12:07.238Z,14.90
2022-12-01T17:14:34.399Z,14.05
2022-12-01T17:17:01.548Z,14.93
2022-12-01T17:19:29.052Z,14.23
2022-12-01T17:21:57.009Z,15.18
2022-12-01T17:24:25.881Z,14.25
2022-12-01T17:26:53.061Z,14.80
2022-12-01T17:29:20.169Z,14.57
2022-12-01T17:31:47.386Z,14.45
2022-12-01T17:34:14.519Z,15.98
2022-12-01T17:36:41.742Z,14.68
2022-12-01T17:39:08.891Z,16.25
2022-12-01T17:41:36.178Z,14.32
2022-12-01T17:44:04.159Z,16.02
2022-12-01T17:46:31.951Z,14.68
2022-12-01T17:48:59.533Z,15.05
2022-12-01T17:51:26.649Z,15.02
2022-12-01T17:53:54.340Z,16.85
2022-12-01T17:56:21.572Z,14.93
2022-12-01T17:58:50.544Z,15.20
2022-12-01T18:01:18.456Z,17.63
2022-12-01T18:03:46.306Z,14.77
2022-12-01T18:06:13.884Z,16.23
2022-12-01T18:08:41.759Z,14.98
2022-12-01T18:11:10.148Z,16.17
2022-12-01T18:13:38.337Z,15.55
2022-12-01T18:16:13.080Z,14.40
2022-12-01T18:18:40.614Z,15.20
2022-12-01T18:21:12.336Z,16.52
2022-12-01T18:23:40.874Z,15.88
2022-12-01T18:26:15.468Z,15.45
2022-12-01T18:28:43.052Z,15.30
2022-12-01T18:31:11.681Z,16.35
2022-12-01T18:33:40.324Z,15.68
2022-12-01T18:36:12.252Z,15.80
2022-12-01T18:38:39.496Z,15.95
2022-12-01T18:41:06.675Z,15.85
2022-12-01T18:43:33.884Z,14.98
2022-12-01T18:46:01.085Z,16.02
2022-12-01T18:48:28.228Z,15.05
2022-12-01T18:50:59.452Z,14.50
2022-12-01T18:53:27.230Z,14.57
2022-12-01T18:55:54.346Z,15.27
2022-12-01T18:58:21.516Z,15.50
2022-12-01T19:00:48.728Z,15.63
2022-12-01T19:03:16.000Z,16.17
2022-12-01T19:05:43.138Z,16.70
2022-12-01T19:08:10.350Z,16.88
2022-12-01T19:10:37.624Z,15.90
2022-12-01T19:15:09.735Z,17.08
2022-12-01T19:17:36.839Z,17.00
2022-12-01T19:20:04.832Z,17.20
2022-12-01T19:22:32.607Z,15.02
2022-12-01T19:24:59.722Z,15.80
2022-12-01T19:27:27.152Z,16.58
2022-12-01T19:29:54.336Z,15.57
2022-12-01T19:32:21.583Z,16.02
2022-12-01T19:34:48.983Z,15.95
2022-12-01T19:37:16.427Z,14.48
2022-12-01T19:39:43.575Z,16.00
2022-12-01T19:42:11.020Z,16.52
2022-12-01T19:44:38.122Z,16.58
2022-12-01T19:47:06.392Z,16.17
2022-12-01T19:49:33.549Z,15.18
2022-12-01T19:52:00.743Z,16.77
2022-12-01T19:54:28.805Z,15.10
2022-12-01T19:56:56.072Z,16.42
2022-12-01T19:59:23.224Z,15.75
2022-12-01T20:01:50.399Z,15.93
2022-12-01T20:04:17.577Z,17.10
2022-12-01T20:06:44.866Z,16.88
2022-12-01T20:09:12.049Z,17.35
2022-12-01T20:11:39.209Z,17.65
2022-12-01T20:14:07.768Z,16.30
2022-12-01T20:16:35.022Z,16.58
2022-12-01T20:19:03.083Z,16.90
2022-12-01T20:21:31.391Z,18.08
2022-12-01T20:24:02.710Z,18.10
2022-12-01T20:26:35.179Z,16.90
2022-12-01T20:29:03.767Z,16.65
2022-12-01T20:31:31.853Z,17.45
2022-12-01T20:33:59.963Z,17.13
2022-12-01T20:36:27.513Z,16.92
2022-12-01T20:38:55.064Z,16.88
2022-12-01T20:41:22.199Z,17.42
2022-12-01T20:43:49.352Z,16.77
2022-12-01T20:46:16.649Z,16.30
2022-12-01T20:48:43.949Z,17.98
2022-12-01T20:51:12.949Z,17.42
2022-12-01T20:53:40.122Z,16.48
2022-12-01T20:56:09.105Z,16.58
2022-12-01T20:58:37.981Z,18.13
2022-12-01T21:01:12.828Z,16.48
2022-12-01T21:03:40.928Z,16.92
2022-12-01T21:06:08.285Z,17.65
2022-12-01T21:08:37.511Z,17.17
2022-12-01T21:11:05.978Z,16.10
2022-12-01T21:13:42.005Z,18.13
2022-12-01T21:16:19.163Z,18.13
2022-12-01T21:18:49.140Z,17.83
2022-12-01T21:21:23.869Z,17.60
2022-12-01T21:24:09.720Z,16.05
2022-12-01T21:26:37.608Z,17.67
2022-12-01T21:29:12.839Z,18.13
2022-12-01T21:31:39.972Z,18.38
2022-12-01T21:34:12.610Z,16.67
2022-12-01T21:36:39.973Z,16.25
2022-12-01T21:39:13.625Z,15.48
2022-12-01T21:41:40.896Z,16.92
2022-12-01T21:44:19.052Z,17.83
2022-12-01T21:46:47.735Z,18.45
2022-12-01T21:49:32.110Z,17.65
2022-12-01T21:51:59.294Z,16.83
2022-12-01T21:54:26.568Z,17.75
2022-12-01T21:56:56.055Z,18.38
2022-12-01T21:59:23.916Z,18.98
2022-12-01T22:01:58.075Z,17.52
2022-12-01T22:04:26.644Z,14.52
2022-12-01T22:06:54.728Z,17.88
2022-12-01T22:09:30.116Z,17.92
2022-12-01T22:11:58.911Z,17.63
2022-12-01T22:14:30.552Z,18.02
2022-12-01T22:16:59.088Z,18.40
2022-12-01T22:19:28.430Z,18.30
2022-12-01T22:22:00.702Z,17.80
2022-12-01T22:24:38.381Z,16.98
2022-12-01T22:27:24.265Z,17.90
2022-12-01T22:30:11.643Z,18.33
2022-12-01T22:32:40.174Z,18.63
2022-12-01T22:35:16.445Z,18.40
2022-12-01T22:37:47.848Z,18.00
2022-12-01T22:40:33.994Z,18.50
2022-12-01T22:43:14.159Z,19.30
2022-12-01T22:45:41.460Z,19.30
2022-12-01T22:48:19.801Z,18.70
2022-12-01T22:50:51.469Z,19.48
2022-12-01T22:53:20.510Z,18.35
2022-12-01T22:55:47.677Z,17.67
2022-12-01T22:58:23.528Z,19.90
2022-12-01T23:00:50.667Z,17.75
2022-12-01T23:03:18.099Z,18.83
2022-12-01T23:05:45.504Z,17.77
2022-12-01T23:08:17.238Z,18.23
2022-12-01T23:10:44.406Z,18.10
2022-12-01T23:13:20.810Z,19.08
2022-12-01T23:15:49.145Z,18.38
2022-12-01T23:18:26.978Z,17.77
2022-12-01T23:20:55.405Z,18.35
2022-12-01T23:23:30.019Z,18.80
2022-12-01T23:25:57.540Z,18.25
2022-12-01T23:28:25.103Z,19.10
2022-12-01T23:30:54.717Z,19.02
2022-12-01T23:33:23.384Z,18.33
2022-12-01T23:36:06.019Z,18.38
2022-12-01T23:38:33.128Z,17.83
2022-12-01T23:41:02.151Z,17.73
2022-12-01T23:43:30.813Z,17.33
2022-12-01T23:46:18.343Z,17.45
2022-12-01T23:49:07.153Z,18.25
2022-12-01T23:51:53.776Z,18.55
2022-12-01T23:54:31.744Z,18.23
2022-12-01T23:57:00.279Z,17.13
2022-12-01T23:59:27.993Z,17.65
